DABC/CZL METAR and TAF weather

Enter ICAO airport designator
Station Type Date Time Source
DABC METAR 2021/04/14 20:00 UTC NOAA

DABC 142000Z VRB02KT 9999 SCT033 BKN040 12/11 Q1018


Station Type Date Time Source
DABC Decoded METAR 2021/04/14 20:00 UTC NOAA

Constantine, Algeria (DABC) 36-17N 006-37E 694M
Apr 14, 2021 - 04:00 PM EDT / 2021.04.14 2000 UTC
Wind: Variable at 2 MPH (2 KT):0
Visibility: greater than 7 mile(s):0
Sky conditions: mostly cloudy
Temperature: 53 F (12 C)
Dew Point: 51 F (11 C)
Relative Humidity: 93%
Pressure (altimeter): 30.06 in. Hg (1018 hPa)
ob: DABC 142000Z VRB02KT 9999 SCT033 BKN040 12/11 Q1018
cycle: 20

Station Type Date Time Source
DABC TAF 2021/04/14 18:33 UTC NOAA

TAF DABC 141700Z 1418/1518 01009KT 9999 FEW020 BKN040
TEMPO 1418/1509 08013KT 5000 -RA FEW023TCU PROB40
TEMPO 1418/1501 4000 -TSRA FEW020CB BKN030 PROB30
TEMPO 1506/1512 5000 -RA FEW020TCU

Example: see airport list